Time;durP1;ratioP1;P1;durP2;ratioP2;P2;SDS_P1;SDS_P2;PMS_P1;PMS_P2;Temp;Humidity;BMP_temperature;BMP_pressure;BME280_temperature;BME280_humidity;BME280_pressure;Samples;Min_cycle;Max_cycle;Signal;HPM_P1;HPM_P2
2022/08/16 00:01:26;;;;;;;5.03;4.18;;;;;;;20.47;61.44;99361.13;5071590;28;20048;-65
2022/08/16 00:03:54;;;;;;;4.25;3.72;;;;;;;20.44;61.75;99361.13;5072466;28;20044;-65
2022/08/16 00:06:22;;;;;;;4.50;3.67;;;;;;;20.41;61.59;99357.09;5075445;28;20048;-65
2022/08/16 00:08:50;;;;;;;4.70;4.00;;;;;;;20.35;61.81;99357.91;5090705;28;20143;-65
2022/08/16 00:11:19;;;;;;;4.68;3.90;;;;;;;20.33;61.96;99363.19;5072304;28;20053;-65
2022/08/16 00:13:48;;;;;;;;;;;;;;;20.27;61.95;99368.44;5072266;28;20048;-65
2022/08/16 00:16:15;;;;;;;4.55;3.70;;;;;;;20.27;61.88;99369.25;5072059;28;19920;-65
2022/08/16 00:18:46;;;;;;;4.28;3.88;;;;;;;20.24;62.12;99370.06;5071785;28;20049;-65
2022/08/16 00:21:16;;;;;;;4.60;4.05;;;;;;;20.21;61.77;99365.22;5076026;28;20059;-65
2022/08/16 00:23:43;;;;;;;6.05;4.18;;;;;;;20.21;62.02;99370.88;5091893;28;20052;-65
2022/08/16 00:26:11;;;;;;;5.78;4.40;;;;;;;20.20;62.04;99374.94;5074600;28;20063;-65
2022/08/16 00:28:38;;;;;;;5.47;3.83;;;;;;;20.14;62.28;99387.88;5072153;28;20060;-65
2022/08/16 00:31:07;;;;;;;5.50;4.10;;;;;;;20.09;62.51;99379.78;5072246;28;20056;-65
2022/08/16 00:33:34;;;;;;;5.20;4.22;;;;;;;20.08;62.54;99381.81;5072148;28;20409;-65
2022/08/16 00:36:02;;;;;;;5.22;3.97;;;;;;;20.07;62.63;99385.03;5073406;28;20477;-65
2022/08/16 00:38:49;;;;;;;4.85;4.35;;;;;;;20.00;62.73;99387.88;5071742;28;20056;-65
2022/08/16 00:41:16;;;;;;;5.35;3.92;;;;;;;19.93;62.92;99382.22;5070979;28;20052;-65
2022/08/16 00:43:46;;;;;;;5.05;4.10;;;;;;;19.90;63.32;99378.19;5072000;28;20056;-65
2022/08/16 00:46:21;;;;;;;6.07;4.60;;;;;;;19.90;63.27;99380.22;5071773;28;20170;-65
2022/08/16 00:48:51;;;;;;;4.53;4.10;;;;;;;19.88;63.29;99386.25;5071093;28;20056;-65
2022/08/16 00:51:24;;;;;;;4.75;3.83;;;;;;;19.85;63.50;99379.41;5062743;28;20056;-65
2022/08/16 00:53:54;;;;;;;6.38;4.30;;;;;;;19.83;63.59;99381.81;5071576;28;20413;-65
2022/08/16 00:56:26;;;;;;;4.72;4.22;;;;;;;19.82;63.64;99377.41;5071597;28;20045;-65
2022/08/16 00:58:53;;;;;;;5.05;4.55;;;;;;;19.78;63.76;99385.06;5071786;28;20075;-65
2022/08/16 01:01:22;;;;;;;4.97;4.00;;;;;;;19.79;63.81;99383.03;5070886;28;20099;-64
2022/08/16 01:03:52;;;;;;;4.80;4.30;;;;;;;19.80;63.70;99391.13;5080668;28;20048;-64
2022/08/16 01:06:21;;;;;;;4.95;4.32;;;;;;;19.78;63.86;99387.88;5084498;28;20059;-65
2022/08/16 01:08:53;;;;;;;4.97;4.28;;;;;;;19.74;63.76;99389.91;5071761;28;20055;-65
2022/08/16 01:11:22;;;;;;;5.32;4.40;;;;;;;19.76;63.82;99395.13;5071287;28;20044;-65
2022/08/16 01:13:53;;;;;;;5.43;3.90;;;;;;;19.74;63.92;99386.25;5071490;28;20056;-65
2022/08/16 01:16:24;;;;;;;5.78;4.13;;;;;;;19.75;63.83;99388.69;5071346;28;20051;-65
2022/08/16 01:18:59;;;;;;;4.72;4.32;;;;;;;19.73;63.96;99387.47;5081208;28;20048;-65
2022/08/16 01:21:40;;;;;;;5.40;4.78;;;;;;;19.74;63.82;99389.06;5086200;28;20485;-65
2022/08/16 01:24:28;;;;;;;4.15;3.75;;;;;;;19.75;63.82;99388.69;5071399;28;20447;-65
2022/08/16 01:27:00;;;;;;;5.68;4.05;;;;;;;19.77;63.85;99377.78;5071642;28;20049;-64
2022/08/16 01:29:33;;;;;;;4.15;3.80;;;;;;;19.78;63.89;99376.59;5071382;28;20062;-65
2022/08/16 01:32:04;;;;;;;4.18;3.78;;;;;;;19.83;63.98;99375.38;5073216;28;20049;-65
2022/08/16 01:34:31;;;;;;;5.25;3.75;;;;;;;19.83;63.86;99369.72;5076696;28;20070;-65
2022/08/16 01:37:02;;;;;;;5.28;4.18;;;;;;;19.90;63.99;99368.91;5090988;28;20048;-65
2022/08/16 01:39:35;;;;;;;4.47;3.78;;;;;;;19.89;64.17;99370.13;5075077;28;20053;-65
2022/08/16 01:42:04;;;;;;;4.30;3.90;;;;;;;19.92;64.28;99370.09;5074847;28;20045;-65
2022/08/16 01:44:31;;;;;;;4.80;4.18;;;;;;;19.97;63.97;99360.41;5082509;28;20076;-65
2022/08/16 01:46:59;;;;;;;4.95;4.13;;;;;;;19.98;64.09;99365.66;5074520;28;20063;-65
2022/08/16 01:49:31;;;;;;;4.53;3.95;;;;;;;20.01;64.03;99364.88;5086758;28;20056;-65
2022/08/16 01:52:02;;;;;;;5.53;4.32;;;;;;;20.04;64.02;99366.88;5095455;28;20503;-65
2022/08/16 01:54:29;;;;;;;4.88;4.28;;;;;;;20.03;64.02;99370.91;5074441;28;20338;-65
2022/08/16 01:57:02;;;;;;;4.65;3.90;;;;;;;20.04;63.88;99371.72;5079447;28;20044;-64
2022/08/16 01:59:31;;;;;;;5.07;4.55;;;;;;;20.05;63.90;99370.50;5074994;28;20056;-65
2022/08/16 02:01:59;;;;;;;5.22;4.72;;;;;;;20.06;63.81;99363.63;5074430;28;20060;-65
2022/08/16 02:04:27;;;;;;;4.57;4.18;;;;;;;20.07;63.83;99356.75;5074030;28;20053;-65
2022/08/16 02:06:58;;;;;;;5.57;4.15;;;;;;;20.06;63.91;99369.28;5074633;28;20064;-65
2022/08/16 02:09:26;;;;;;;5.93;4.60;;;;;;;20.05;63.68;99362.84;5073996;28;20052;-65
2022/08/16 02:11:57;;;;;;;5.43;4.30;;;;;;;20.07;63.78;99368.06;5075941;28;20056;-65
2022/08/16 02:14:29;;;;;;;5.20;4.70;;;;;;;20.08;63.76;99366.88;5077382;28;20059;-65
2022/08/16 02:17:00;;;;;;;4.57;4.18;;;;;;;20.08;63.62;99364.84;5094421;28;20051;-65
2022/08/16 02:19:29;;;;;;;4.40;4.00;;;;;;;20.10;63.90;99367.28;5080766;28;20060;-65
2022/08/16 02:21:59;;;;;;;4.90;3.80;;;;;;;20.10;63.98;99361.63;5074573;28;20496;-65
2022/08/16 02:24:26;;;;;;;4.53;3.97;;;;;;;20.12;63.65;99364.84;5073812;28;20055;-64
2022/08/16 02:26:55;;;;;;;4.38;3.97;;;;;;;20.15;63.80;99366.84;5088445;28;20040;-65
2022/08/16 02:29:27;;;;;;;4.28;3.88;;;;;;;20.17;63.89;99364.41;5084760;28;20087;-65
2022/08/16 02:31:54;;;;;;;4.15;3.75;;;;;;;20.21;63.89;99370.06;5074483;28;20055;-65
2022/08/16 02:34:22;;;;;;;7.20;4.45;;;;;;;20.25;63.91;99366.00;5073784;28;20055;-65
2022/08/16 02:36:49;;;;;;;5.05;4.07;;;;;;;20.28;63.85;99370.88;5074460;28;20440;-65
2022/08/16 02:39:19;;;;;;;4.63;3.83;;;;;;;20.33;63.51;99366.81;5074088;28;20063;-65
2022/08/16 02:41:51;;;;;;;6.35;4.30;;;;;;;20.38;63.46;99368.41;5091679;28;20433;-65
2022/08/16 02:44:20;;;;;;;6.85;4.40;;;;;;;20.39;63.51;99370.00;5087711;28;20048;-65
2022/08/16 02:46:49;;;;;;;4.75;4.00;;;;;;;20.43;63.28;99376.47;5074048;28;20049;-65
2022/08/16 02:49:16;;;;;;;4.45;4.00;;;;;;;20.46;63.14;99375.66;5074193;28;20439;-65
2022/08/16 02:51:44;;;;;;;4.28;3.88;;;;;;;20.46;62.92;99376.47;5073923;28;20049;-65
2022/08/16 02:54:13;;;;;;;5.30;4.07;;;;;;;20.47;63.00;99363.94;5073697;28;20397;-65
2022/08/16 02:56:41;;;;;;;4.32;3.92;;;;;;;20.48;63.02;99368.38;5073527;28;20067;-65
2022/08/16 02:59:09;;;;;;;4.45;4.05;;;;;;;20.52;62.79;99367.56;5073404;28;20063;-65
2022/08/16 03:01:37;;;;;;;4.35;3.95;;;;;;;20.53;62.84;99364.31;5073409;28;20063;-61
2022/08/16 03:04:06;;;;;;;5.85;3.88;;;;;;;20.53;62.72;99372.00;5085567;28;20048;-61
2022/08/16 03:06:34;;;;;;;4.20;3.80;;;;;;;20.50;62.80;99376.47;5075614;28;20428;-61
2022/08/16 03:09:02;;;;;;;4.75;4.25;;;;;;;20.51;62.63;99372.41;5073837;28;20048;-61
2022/08/16 03:11:31;;;;;;;5.40;3.83;;;;;;;20.48;62.76;99371.22;5075716;28;20048;-61
2022/08/16 03:14:01;;;;;;;4.80;3.50;;;;;;;20.48;62.50;99378.91;5093399;28;20048;-61
2022/08/16 03:16:29;;;;;;;4.18;3.78;;;;;;;20.46;63.03;99375.66;5079369;28;20062;-61
2022/08/16 03:18:59;;;;;;;4.18;3.78;;;;;;;20.42;62.75;99372.03;5073212;28;20068;-62
2022/08/16 03:21:31;;;;;;;4.88;3.80;;;;;;;20.41;62.90;99374.06;5064962;28;20393;-61
2022/08/16 03:23:58;;;;;;;4.25;3.85;;;;;;;20.41;62.92;99368.41;5073265;28;20052;-61
2022/08/16 03:26:25;;;;;;;4.38;3.63;;;;;;;20.41;62.88;99367.59;5073040;28;20049;-61
2022/08/16 03:28:56;;;;;;;5.13;4.00;;;;;;;20.40;62.75;99371.66;5073435;28;20056;-61
2022/08/16 03:31:24;;;;;;;4.38;3.70;;;;;;;20.38;62.86;99372.03;5072798;28;20049;-61
2022/08/16 03:33:54;;;;;;;5.03;3.95;;;;;;;20.36;62.86;99371.66;5073021;28;20060;-61
2022/08/16 03:36:23;;;;;;;4.70;3.90;;;;;;;20.35;62.74;99372.88;5085452;28;20049;-61
2022/08/16 03:38:51;;;;;;;4.38;3.97;;;;;;;20.32;62.97;99375.69;5072875;28;20052;-61
2022/08/16 03:41:19;;;;;;;5.40;3.90;;;;;;;20.28;62.94;99370.03;5072962;28;20370;-61
2022/08/16 03:43:49;;;;;;;6.32;4.40;;;;;;;20.23;63.23;99373.31;5072959;28;20060;-61
2022/08/16 03:46:19;;;;;;;6.07;4.35;;;;;;;20.16;63.40;99379.78;5072721;28;20055;-61
2022/08/16 03:48:46;;;;;;;;;;;;;;;20.10;63.49;99377.78;5081126;28;20048;-61
2022/08/16 03:51:13;;;;;;;4.90;4.20;;;;;;;20.10;63.84;99383.44;5091066;28;19920;-61
2022/08/16 03:53:41;;;;;;;5.60;4.60;;;;;;;20.11;63.86;99385.84;5072379;28;20048;-62
2022/08/16 03:56:11;;;;;;;4.75;4.20;;;;;;;20.12;63.87;99386.66;5072362;28;20055;-62
2022/08/16 03:58:38;;;;;;;;;;;;;;;20.05;63.86;99385.44;5073093;28;20048;-61
2022/08/16 04:01:05;;;;;;;5.47;4.07;;;;;;;20.03;64.18;99389.88;5072437;28;19920;-61
2022/08/16 04:03:33;;;;;;;7.50;4.00;;;;;;;20.03;64.35;99387.03;5082019;28;20052;-61
2022/08/16 04:06:00;;;;;;;5.65;4.43;;;;;;;20.05;64.43;99390.28;5092771;28;20126;-61
2022/08/16 04:08:30;;;;;;;4.57;3.78;;;;;;;20.05;64.42;99395.94;5075901;28;20052;-62
2022/08/16 04:10:57;;;;;;;;;;;;;;;20.06;64.17;99381.41;5074502;28;20048;-61
2022/08/16 04:13:27;;;;;;;4.32;3.80;;;;;;;20.11;63.86;99393.50;5083571;28;19927;-62
2022/08/16 04:15:54;;;;;;;;;;;;;;;20.08;63.99;99395.13;5093494;28;20059;-62
2022/08/16 04:18:22;;;;;;;5.93;3.78;;;;;;;20.07;64.08;99393.50;5079282;28;19927;-61
2022/08/16 04:20:50;;;;;;;4.50;3.80;;;;;;;20.10;64.13;99397.56;5072689;28;20052;-62
2022/08/16 04:23:17;;;;;;;4.72;3.83;;;;;;;20.14;64.02;99392.69;5072051;28;20056;-62
2022/08/16 04:25:45;;;;;;;4.38;3.97;;;;;;;20.10;63.97;99395.53;5071961;28;20053;-61
2022/08/16 04:28:13;;;;;;;4.20;3.50;;;;;;;20.11;64.02;99393.50;5077522;28;20052;-62
2022/08/16 04:30:41;;;;;;;5.22;4.00;;;;;;;20.15;64.08;99394.31;5072229;28;20071;-62
2022/08/16 04:33:09;;;;;;;5.03;3.80;;;;;;;20.17;63.79;99391.88;5072242;28;20410;-62
2022/08/16 04:35:36;;;;;;;4.20;3.67;;;;;;;20.21;63.81;99392.69;5071921;28;20075;-62
2022/08/16 04:38:04;;;;;;;4.35;3.60;;;;;;;20.25;63.67;99405.59;5071759;28;20063;-63
2022/08/16 04:40:32;;;;;;;4.43;3.70;;;;;;;20.25;63.25;99405.59;5071936;28;20064;-62
2022/08/16 04:43:00;;;;;;;4.60;3.88;;;;;;;20.28;63.24;99401.16;5084575;28;20063;-62
2022/08/16 04:45:27;;;;;;;6.10;3.80;;;;;;;20.29;63.00;99405.59;5072000;28;20060;-62
2022/08/16 04:47:56;;;;;;;4.50;3.60;;;;;;;20.31;63.04;99408.03;5071521;28;20485;-62
2022/08/16 04:50:27;;;;;;;5.25;4.53;;;;;;;20.30;63.33;99412.06;5072214;28;20390;-62
2022/08/16 04:52:56;;;;;;;4.38;3.47;;;;;;;20.32;63.07;99418.13;5072072;28;20511;-62
2022/08/16 04:55:26;;;;;;;4.13;3.70;;;;;;;20.33;62.91;99419.75;5071390;28;20175;-62
2022/08/16 04:57:55;;;;;;;4.97;3.95;;;;;;;20.34;63.01;99412.88;5071541;28;20421;-62
2022/08/16 05:00:24;;;;;;;4.55;3.70;;;;;;;20.37;62.77;99420.53;5071906;28;20059;-62
2022/08/16 05:02:54;;;;;;;;;;;;;;;20.40;62.76;99425.38;5071806;28;20052;-62
2022/08/16 05:05:23;;;;;;;5.43;3.80;;;;;;;20.42;62.95;99429.41;5071529;28;20015;-62
2022/08/16 05:07:51;;;;;;;5.65;4.30;;;;;;;20.48;62.79;99426.97;5086821;28;20052;-62
2022/08/16 05:10:18;;;;;;;6.60;3.70;;;;;;;20.54;62.71;99425.34;5080825;28;20110;-62
2022/08/16 05:12:46;;;;;;;5.03;3.70;;;;;;;20.58;62.34;99423.34;5072006;28;20052;-63
2022/08/16 05:15:14;;;;;;;4.15;3.30;;;;;;;20.66;62.16;99421.28;5074869;28;20063;-63
2022/08/16 05:17:41;;;;;;;5.47;3.90;;;;;;;20.71;61.70;99425.75;5078626;28;20063;-62
2022/08/16 05:20:10;;;;;;;6.13;3.92;;;;;;;20.75;61.66;99426.53;5082372;28;20056;-62
2022/08/16 05:22:41;;;;;;;4.82;3.92;;;;;;;20.79;61.62;99421.66;5055444;28;20052;-62
2022/08/16 05:25:11;;;;;;;7.18;3.85;;;;;;;20.83;61.61;99416.78;5061713;28;20053;-59
2022/08/16 05:27:39;;;;;;;6.05;3.80;;;;;;;20.84;61.91;99418.41;5065356;28;20512;-60
2022/08/16 05:30:08;;;;;;;6.15;3.80;;;;;;;20.91;62.11;99421.22;5074358;28;20041;-60
2022/08/16 05:32:36;;;;;;;6.32;3.45;;;;;;;20.89;61.87;99426.47;5074501;28;20059;-60
2022/08/16 05:35:06;;;;;;;5.80;3.50;;;;;;;21.02;61.68;99429.66;5066606;28;20045;-60
2022/08/16 05:37:34;;;;;;;4.18;3.47;;;;;;;21.12;61.07;99431.63;5063551;28;20045;-59
2022/08/16 05:40:04;;;;;;;5.63;3.60;;;;;;;21.21;61.11;99432.00;5073047;28;20461;-60
2022/08/16 05:42:31;;;;;;;5.43;3.88;;;;;;;21.27;60.96;99435.19;5061032;28;20056;-60
2022/08/16 05:45:00;;;;;;;5.43;3.28;;;;;;;21.26;61.05;99444.94;5082027;28;20059;-60
2022/08/16 05:47:27;;;;;;;6.28;3.72;;;;;;;21.28;60.63;99437.63;5074947;28;20049;-60
2022/08/16 05:49:54;;;;;;;5.50;3.60;;;;;;;21.26;60.53;99439.25;5074628;28;20438;-61
2022/08/16 05:52:22;;;;;;;5.25;4.03;;;;;;;21.36;60.34;99444.06;5073468;28;20056;-61
2022/08/16 05:54:49;;;;;;;5.30;3.55;;;;;;;21.46;59.96;99443.22;5078713;28;20600;-60
2022/08/16 05:57:19;;;;;;;7.95;3.90;;;;;;;21.46;60.04;99451.72;5076136;28;20493;-60
2022/08/16 05:59:47;;;;;;;5.10;3.97;;;;;;;21.53;59.40;99448.03;5090296;28;20147;-59
2022/08/16 06:02:15;;;;;;;3.83;2.97;;;;;;;21.58;59.47;99443.97;5073477;28;20059;-59
2022/08/16 06:04:42;;;;;;;5.20;3.92;;;;;;;21.58;59.43;99438.28;5065626;28;20489;-59
2022/08/16 06:07:10;;;;;;;4.90;3.50;;;;;;;21.75;59.03;99442.22;5071637;28;20040;-59
2022/08/16 06:09:38;;;;;;;3.60;3.25;;;;;;;21.69;59.16;99450.34;5072834;28;20079;-59
2022/08/16 06:12:06;;;;;;;5.40;3.28;;;;;;;21.76;58.57;99450.31;5073774;28;20111;-59
2022/08/16 06:14:35;;;;;;;5.00;3.20;;;;;;;21.84;58.38;99451.09;5072986;28;20404;-60
2022/08/16 06:17:02;;;;;;;3.70;3.30;;;;;;;21.82;58.63;99454.31;5073191;28;20052;-60
2022/08/16 06:19:29;;;;;;;4.80;3.10;;;;;;;21.88;58.07;99452.66;5085829;28;20056;-60
2022/08/16 06:21:56;;;;;;;4.75;3.47;;;;;;;22.00;58.02;99448.50;5079493;28;20049;-60
2022/08/16 06:24:24;;;;;;;3.85;3.00;;;;;;;22.22;57.67;99451.19;5073521;28;20063;-60
2022/08/16 06:26:51;;;;;;;4.72;2.95;;;;;;;22.22;57.08;99449.13;5071910;28;20060;-60
2022/08/16 06:29:18;;;;;;;5.40;3.35;;;;;;;22.13;57.34;99454.47;5073359;28;20048;-60
2022/08/16 06:31:47;;;;;;;5.63;3.45;;;;;;;22.14;57.30;99456.09;5072513;28;20052;-59
2022/08/16 06:34:15;;;;;;;4.25;3.10;;;;;;;22.15;57.13;99454.06;5074314;28;20070;-60
2022/08/16 06:36:42;;;;;;;4.43;3.30;;;;;;;22.34;56.62;99449.88;5079508;28;20056;-61
2022/08/16 06:39:09;;;;;;;3.72;3.30;;;;;;;22.42;56.56;99457.88;5072896;28;20048;-59
2022/08/16 06:41:37;;;;;;;5.78;3.28;;;;;;;22.49;56.13;99463.50;5072367;28;20052;-59
2022/08/16 06:44:04;;;;;;;5.60;3.80;;;;;;;22.27;56.91;99459.25;5056987;28;20052;-60
2022/08/16 06:46:36;;;;;;;4.03;3.25;;;;;;;22.46;56.19;99458.66;5079409;28;20052;-60
2022/08/16 06:49:08;;;;;;;5.22;3.25;;;;;;;22.55;56.52;99466.69;5070098;28;20076;-60
2022/08/16 06:51:36;;;;;;;4.63;3.53;;;;;;;22.45;56.19;99459.09;5068520;28;20611;-60
2022/08/16 06:54:04;;;;;;;3.80;3.37;;;;;;;22.52;56.28;99467.53;5066610;28;20056;-60
2022/08/16 06:56:32;;;;;;;3.88;3.38;;;;;;;22.80;55.36;99471.28;5066221;28;20048;-60
2022/08/16 06:59:00;;;;;;;4.78;3.33;;;;;;;22.92;55.60;99461.44;5067416;28;20048;-60
2022/08/16 07:01:27;;;;;;;4.63;2.73;;;;;;;23.22;54.50;99463.50;5023287;28;1238443;-61
2022/08/16 07:03:55;;;;;;;5.05;3.20;;;;;;;23.42;54.10;99469.34;5064523;28;20055;-61
2022/08/16 07:06:24;;;;;;;4.95;3.13;;;;;;;23.37;54.05;99470.66;5072064;28;20063;-61
2022/08/16 07:08:51;;;;;;;;;;;;;;;23.66;53.54;99481.59;5067973;28;20060;-61
2022/08/16 07:11:20;;;;;;;4.43;3.35;;;;;;;23.60;53.71;99481.28;5071455;28;19924;-63
2022/08/16 07:13:49;;;;;;;4.43;3.38;;;;;;;23.69;53.17;99480.75;5067054;28;20509;-61
2022/08/16 07:16:16;;;;;;;4.93;3.50;;;;;;;23.86;52.83;99485.41;5073187;28;20055;-62
2022/08/16 07:18:44;;;;;;;6.45;4.00;;;;;;;23.90;52.37;99483.31;5073680;28;20060;-61
2022/08/16 07:21:14;;;;;;;3.92;3.53;;;;;;;24.35;51.72;99481.38;5072272;28;20397;-61
2022/08/16 07:23:45;;;;;;;;;;;;;;;24.95;49.99;99482.31;5080031;28;20059;-62
2022/08/16 07:26:18;;;;;;;5.00;3.67;;;;;;;25.54;48.83;99480.72;5071680;28;20235;-61
2022/08/16 07:28:45;;;;;;;4.05;3.65;;;;;;;26.06;47.07;99484.81;5055403;28;20041;-61
2022/08/16 07:31:13;;;;;;;5.40;3.40;;;;;;;26.54;45.75;99488.91;5060538;28;20072;-62
2022/08/16 07:33:41;;;;;;;3.97;3.58;;;;;;;27.09;44.77;99484.19;5062669;28;20060;-62
2022/08/16 07:36:09;;;;;;;4.78;3.30;;;;;;;27.69;43.45;99474.25;5061106;28;20485;-62
2022/08/16 07:38:37;;;;;;;5.88;3.45;;;;;;;28.24;42.73;99463.47;5067471;28;20060;-62
2022/08/16 07:41:06;;;;;;;6.03;3.42;;;;;;;29.09;40.18;99470.34;5064493;28;20048;-61
2022/08/16 07:43:34;;;;;;;8.05;3.72;;;;;;;29.72;39.31;99476.22;5063235;28;20048;-61
2022/08/16 07:46:01;;;;;;;5.38;3.60;;;;;;;30.22;37.98;99479.09;5060199;28;20508;-62
2022/08/16 07:48:29;;;;;;;6.10;3.90;;;;;;;30.66;37.03;99482.59;5069187;28;20052;-61
2022/08/16 07:50:57;;;;;;;8.95;4.75;;;;;;;31.46;35.88;99488.53;5067170;28;20060;-61
2022/08/16 07:53:24;;;;;;;5.03;3.60;;;;;;;31.80;34.87;99490.16;5072228;28;20078;-61
2022/08/16 07:55:52;;;;;;;6.63;3.50;;;;;;;32.80;34.45;99483.56;5067146;28;20048;-61
2022/08/16 07:58:21;;;;;;;4.28;3.85;;;;;;;33.60;31.72;99478.88;5070381;28;20048;-61
2022/08/16 08:00:48;;;;;;;;;;;;;;;34.12;31.21;99470.56;5066911;28;20049;-61
2022/08/16 08:03:15;;;;;;;4.93;3.17;;;;;;;34.96;30.58;99465.13;5068537;28;19925;-61
2022/08/16 08:05:43;;;;;;;4.82;3.13;;;;;;;35.84;29.06;99484.44;5065843;28;20052;-61
2022/08/16 08:08:10;;;;;;;3.72;2.65;;;;;;;36.80;27.72;99488.78;5065646;28;20519;-61
2022/08/16 08:10:37;;;;;;;5.25;3.20;;;;;;;37.06;26.76;99491.50;5059593;28;20064;-62
2022/08/16 08:13:05;;;;;;;6.15;3.40;;;;;;;37.06;26.86;99491.50;5058371;28;20421;-61
2022/08/16 08:15:34;;;;;;;4.10;2.50;;;;;;;38.04;25.96;99489.06;5061617;28;20381;-62
2022/08/16 08:18:01;;;;;;;4.70;2.60;;;;;;;38.84;25.16;99493.34;5057580;28;20478;-61
2022/08/16 08:20:29;;;;;;;4.40;2.93;;;;;;;39.64;23.55;99487.91;5066789;28;20155;-62
2022/08/16 08:22:58;;;;;;;4.63;2.83;;;;;;;40.08;23.32;99486.75;5061821;28;21049;-62
2022/08/16 08:25:26;;;;;;;4.60;2.70;;;;;;;40.56;22.98;99493.19;5061500;28;20049;-62
2022/08/16 08:27:54;;;;;;;4.82;2.90;;;;;;;41.14;21.91;99495.66;5063109;28;20397;-62
2022/08/16 08:30:21;;;;;;;3.92;3.00;;;;;;;41.52;21.92;99491.94;5060951;28;20060;-62
2022/08/16 08:32:50;;;;;;;5.65;3.13;;;;;;;42.24;21.13;99495.00;5074234;28;20059;-62
2022/08/16 08:35:17;;;;;;;3.72;3.15;;;;;;;42.68;20.25;99495.50;5068275;28;20408;-62
2022/08/16 08:37:45;;;;;;;3.95;3.22;;;;;;;42.76;19.99;99496.41;5065368;28;20071;-63
2022/08/16 08:40:12;;;;;;;5.50;3.35;;;;;;;43.01;19.55;99501.22;5061740;28;20053;-63
2022/08/16 08:42:42;;;;;;;;;;;;;;;43.24;19.35;99498.56;5057824;28;20061;-63
2022/08/16 08:45:12;;;;;;;3.90;3.20;;;;;;;43.40;19.33;99499.59;5069763;28;20371;-63
2022/08/16 08:47:39;;;;;;;3.85;3.30;;;;;;;43.55;19.23;99494.66;5070428;28;20049;-61
2022/08/16 08:50:09;;;;;;;4.60;3.00;;;;;;;44.51;17.96;99500.25;5070202;28;20051;-62
2022/08/16 08:52:37;;;;;;;3.92;2.83;;;;;;;44.92;17.66;99493.47;5065642;28;20060;-62
2022/08/16 08:55:07;;;;;;;4.20;3.10;;;;;;;45.62;17.48;99502.56;5069117;28;20049;-62
2022/08/16 08:57:34;;;;;;;7.88;3.47;;;;;;;46.07;17.09;99501.06;5062062;28;20052;-62
2022/08/16 09:00:03;;;;;;;3.92;3.03;;;;;;;47.27;15.95;99490.22;5067971;28;20055;-62
2022/08/16 09:02:30;;;;;;;9.00;4.22;;;;;;;47.22;16.14;99497.91;5054094;28;20068;-62
2022/08/16 09:04:57;;;;;;;6.78;3.40;;;;;;;48.11;15.56;99497.75;5056149;28;20057;-62
2022/08/16 09:07:26;;;;;;;5.05;3.45;;;;;;;48.60;15.24;99496.13;5063317;28;20048;-63
2022/08/16 09:09:54;;;;;;;5.10;3.17;;;;;;;49.07;14.67;99500.13;5064225;28;20501;-62
2022/08/16 09:12:22;;;;;;;4.55;3.55;;;;;;;49.52;14.17;99500.94;5051942;28;20055;-62
2022/08/16 09:14:49;;;;;;;3.72;3.08;;;;;;;50.06;13.84;99502.31;5060023;28;20080;-60
2022/08/16 09:17:17;;;;;;;6.65;3.28;;;;;;;50.30;13.57;99506.44;5065146;28;20056;-62
2022/08/16 09:19:44;;;;;;;4.50;3.47;;;;;;;50.87;13.09;99507.94;5063467;28;20408;-63
2022/08/16 09:22:11;;;;;;;5.18;4.07;;;;;;;50.50;13.24;99502.13;5068985;28;20059;-63
2022/08/16 09:24:40;;;;;;;4.70;4.03;;;;;;;50.88;12.98;99508.72;5055216;28;20048;-62
2022/08/16 09:27:07;;;;;;;4.35;3.95;;;;;;;51.22;12.66;99503.88;5064870;28;20524;-63
2022/08/16 09:29:35;;;;;;;4.13;3.72;;;;;;;51.47;12.23;99507.28;5058612;28;20512;-63
2022/08/16 09:32:03;;;;;;;3.88;3.30;;;;;;;51.78;12.30;99505.78;5062178;28;20053;-63
2022/08/16 09:34:31;;;;;;;3.70;3.38;;;;;;;51.66;12.25;99508.63;5067739;28;20068;-62
2022/08/16 09:36:58;;;;;;;5.35;3.40;;;;;;;51.86;11.96;99507.19;5062800;28;20536;-63
2022/08/16 09:39:26;;;;;;;4.32;3.42;;;;;;;51.76;11.97;99504.22;5066130;28;20515;-63
2022/08/16 09:41:57;;;;;;;5.25;4.15;;;;;;;52.29;11.78;99509.47;5069351;28;20056;-61
2022/08/16 09:44:26;;;;;;;4.38;3.20;;;;;;;52.14;11.63;99505.50;5061112;28;20045;-63
2022/08/16 09:46:55;;;;;;;4.38;3.40;;;;;;;52.19;11.45;99503.63;5055162;28;20405;-61
2022/08/16 09:49:23;;;;;;;4.90;3.53;;;;;;;52.00;11.61;99503.66;5056478;28;20041;-61
2022/08/16 09:51:53;;;;;;;5.35;3.45;;;;;;;52.03;11.51;99508.34;5059892;28;20470;-62
2022/08/16 09:54:21;;;;;;;4.00;3.60;;;;;;;52.23;11.54;99509.03;5067542;28;20060;-61
2022/08/16 09:56:51;;;;;;;3.88;3.33;;;;;;;52.67;11.34;99501.72;5069982;28;20076;-64
2022/08/16 09:59:22;;;;;;;4.40;4.03;;;;;;;52.54;10.93;99497.91;5062833;28;20048;-63
2022/08/16 10:01:50;;;;;;;4.07;3.45;;;;;;;52.59;11.10;99504.94;5074862;28;20404;-61
2022/08/16 10:04:18;;;;;;;3.55;3.00;;;;;;;51.63;11.79;99501.00;5072339;28;20434;-61
2022/08/16 10:06:46;;;;;;;4.38;3.97;;;;;;;51.30;12.19;99496.34;5071314;28;20052;-62
2022/08/16 10:09:15;;;;;;;3.88;3.58;;;;;;;51.72;12.19;99491.25;5070407;28;20044;-62
2022/08/16 10:14:30;;;;;;;4.10;3.67;;;;;;;51.72;11.58;99491.25;5072099;28;20055;-62
2022/08/16 10:16:59;;;;;;;4.22;3.78;;;;;;;52.18;11.44;99483.44;5065132;28;20556;-62
2022/08/16 10:19:27;;;;;;;4.15;3.63;;;;;;;52.70;10.66;99488.56;5069039;28;20504;-62
2022/08/16 10:21:56;;;;;;;5.28;4.38;;;;;;;52.22;11.14;99487.47;5064658;28;20055;-62
2022/08/16 10:24:23;;;;;;;4.72;3.80;;;;;;;52.61;10.92;99490.22;5065235;28;20508;-62
2022/08/16 10:26:51;;;;;;;5.15;3.85;;;;;;;51.20;11.38;99489.66;5062532;28;20056;-62
2022/08/16 10:29:19;;;;;;;5.22;3.40;;;;;;;49.13;12.98;99491.78;5070261;28;20048;-62
2022/08/16 10:31:47;;;;;;;3.38;3.08;;;;;;;47.62;14.13;99499.28;5071936;28;20048;-62
2022/08/16 10:34:15;;;;;;;5.38;4.15;;;;;;;48.38;13.77;99498.69;5066654;28;20049;-62
2022/08/16 10:36:42;;;;;;;4.57;3.47;;;;;;;48.98;13.32;99500.84;5062512;28;20428;-62
2022/08/16 10:39:10;;;;;;;3.75;2.90;;;;;;;48.30;13.47;99500.97;5067924;28;20697;-62
2022/08/16 10:41:37;;;;;;;;;;;;;;;46.52;14.56;99499.50;5066858;28;20052;-63
2022/08/16 10:44:04;;;;;;;4.32;3.60;;;;;;;47.18;14.44;99494.59;5066579;28;19920;-62
2022/08/16 10:46:33;;;;;;;4.63;4.13;;;;;;;48.14;13.83;99497.31;5065586;28;20045;-62
2022/08/16 10:49:02;;;;;;;4.30;3.10;;;;;;;48.66;13.24;99504.75;5053735;28;20053;-63
2022/08/16 10:51:31;;;;;;;4.00;3.30;;;;;;;49.04;12.62;99495.47;5061698;28;20063;-62
2022/08/16 10:53:58;;;;;;;5.18;3.47;;;;;;;48.58;13.41;99493.78;5072236;28;20428;-62
2022/08/16 10:56:26;;;;;;;4.30;3.90;;;;;;;49.60;12.24;99494.09;5070101;28;20049;-63
2022/08/16 10:58:56;;;;;;;5.38;3.70;;;;;;;50.25;12.61;99498.63;5069162;28;20063;-62
2022/08/16 11:01:25;;;;;;;5.88;3.22;;;;;;;50.63;11.75;99506.03;5055319;28;20056;-61
2022/08/16 11:03:53;;;;;;;4.75;3.70;;;;;;;50.83;11.68;99500.94;5058808;28;20048;-62
2022/08/16 11:06:22;;;;;;;4.78;3.90;;;;;;;51.69;11.50;99493.31;5059316;28;20611;-62
2022/08/16 11:08:49;;;;;;;3.40;3.05;;;;;;;52.16;10.86;99492.97;5060980;28;20048;-62
2022/08/16 11:11:17;;;;;;;4.00;3.60;;;;;;;52.60;10.23;99493.81;5062844;28;20048;-62
2022/08/16 11:13:47;;;;;;;3.85;3.45;;;;;;;51.02;10.38;99506.84;5058170;28;20049;-61
2022/08/16 11:16:14;;;;;;;4.05;3.60;;;;;;;51.05;10.58;99505.59;5068898;28;20049;-62
2022/08/16 11:18:42;;;;;;;4.00;3.22;;;;;;;51.06;10.36;99507.16;5060180;28;20123;-62
2022/08/16 11:21:09;;;;;;;4.68;3.58;;;;;;;51.36;10.04;99496.03;5066945;28;20053;-60
2022/08/16 11:23:38;;;;;;;4.65;4.28;;;;;;;50.84;10.42;99500.28;5058188;28;20100;-61
2022/08/16 11:26:05;;;;;;;3.90;3.17;;;;;;;51.04;10.64;99489.19;5071311;28;20053;-61
2022/08/16 11:28:35;;;;;;;5.30;3.83;;;;;;;50.70;10.77;99502.94;5071265;28;20052;-62
2022/08/16 11:31:02;;;;;;;4.50;3.72;;;;;;;51.35;10.98;99495.28;5065729;28;20048;-61
2022/08/16 11:33:29;;;;;;;5.18;3.90;;;;;;;51.23;10.94;99505.44;5064964;28;20057;-61
2022/08/16 11:35:56;;;;;;;5.25;3.45;;;;;;;51.41;10.98;99500.09;5066879;28;20508;-61
2022/08/16 11:38:24;;;;;;;4.72;3.50;;;;;;;51.78;11.03;99505.78;5056560;28;20408;-63
2022/08/16 11:40:56;;;;;;;3.50;3.17;;;;;;;51.73;10.52;99504.72;5061291;28;20052;-62
2022/08/16 11:43:26;;;;;;;4.15;3.60;;;;;;;51.77;10.65;99516.91;5057790;28;20052;-61
2022/08/16 11:45:56;;;;;;;3.75;3.40;;;;;;;51.81;10.57;99507.50;5060425;28;20056;-62